DQ4 weather

CLOSED Catalina Harbour Water Aerodrome
Catalina, Newfoundland and Labrador, Canada

Public forecast

Using degrees Celsius for public forecast. Weather courtesy of forecast.io.

METAR (pilot weather report)

Closest report is St. John's International Airport, 54.9 nm (101.7 km) SSE. Retrieved 2019/07/21 04:00 UTC (23 minutes ago):

CYYT 210400Z 07004KT 8SM OVC004 08/07 A2973 RMK SF8 SLP070

TAF (pilot weather forecast)

Forecast is more than 12 hours old.

Closest forecast is St. John's International Airport, 54.9 nm (101.7 km) SSE. Retrieved 2019/07/20 00:39 UTC (1 day ago):

TAF CYYT 202338Z 2100/2124 01010KT P6SM FEW004 OVC010 TEMPO 2100/2106 5SM BR OVC004 PROB30 2100/2106 2SM BR OVC003 FM210600 VRB03KT P6SM BKN006 PROB30 2106/2111 2SM BR OVC003 FM211100 14010KT P6SM SCT006 BKN010 FM211500 15012KT 5SM -RA BR OVC015 FM212100 15012KT 1/2SM -RA FG VV001 RMK NXT FCST BY 210600Z